createdAt,value
2023-03-23T00:00:02.826Z,10.26
2023-03-23T00:05:02.599Z,9.98
2023-03-23T00:10:02.340Z,9.78
2023-03-23T00:15:03.061Z,9.87
2023-03-23T00:20:02.223Z,9.83
2023-03-23T00:25:02.966Z,9.98
2023-03-23T00:30:02.703Z,9.98
2023-03-23T00:35:02.924Z,10.27
2023-03-23T00:40:02.261Z,10.26
2023-03-23T00:45:03.109Z,10.47
2023-03-23T00:50:02.810Z,10.58
2023-03-23T00:55:03.515Z,10.75
2023-03-23T01:00:05.433Z,10.48
2023-03-23T01:05:03.125Z,10.3
2023-03-23T01:10:02.981Z,10.32
2023-03-23T01:15:02.812Z,10.27
2023-03-23T01:20:02.478Z,10.18
2023-03-23T01:25:02.422Z,10.19
2023-03-23T01:30:02.581Z,10.18
2023-03-23T01:35:02.415Z,10.14
2023-03-23T01:40:02.303Z,9.9
2023-03-23T01:45:03.151Z,10.02
2023-03-23T01:50:02.794Z,10.3
2023-03-23T01:55:03.208Z,10.37
2023-03-23T02:00:02.290Z,10.82
2023-03-23T02:05:03.013Z,10.99
2023-03-23T02:10:02.896Z,11.03
2023-03-23T02:15:03.150Z,10.89
2023-03-23T02:20:02.719Z,10.82
2023-03-23T02:25:02.596Z,10.72
2023-03-23T02:30:02.357Z,10.72
2023-03-23T02:35:03.126Z,10.8
2023-03-23T02:40:03.080Z,10.77
2023-03-23T02:45:02.868Z,10.7
2023-03-23T02:50:02.476Z,10.74
2023-03-23T02:55:04.674Z,11.43
2023-03-23T03:00:02.880Z,11.58
2023-03-23T03:05:02.769Z,11.61
2023-03-23T03:10:02.547Z,11.31
2023-03-23T03:15:02.675Z,11.2
2023-03-23T03:20:02.537Z,11.49
2023-03-23T03:25:17.948Z,11.48
2023-03-23T03:30:02.272Z,11.47
2023-03-23T03:35:03.179Z,11.61
2023-03-23T03:40:02.823Z,11.64
2023-03-23T03:45:02.776Z,11.75
2023-03-23T03:50:02.360Z,11.71
2023-03-23T03:55:03.080Z,11.49
2023-03-23T04:00:02.357Z,11.39
2023-03-23T04:05:03.064Z,11.32
2023-03-23T04:10:02.865Z,11.49
2023-03-23T04:15:06.123Z,11.48
2023-03-23T04:20:02.579Z,11.13
2023-03-23T04:25:02.426Z,11.13
2023-03-23T04:30:03.125Z,11.17
2023-03-23T04:35:12.606Z,11.29
2023-03-23T04:40:02.906Z,11.33
2023-03-23T04:45:02.663Z,11.39
2023-03-23T04:50:02.415Z,11.52
2023-03-23T04:55:04.107Z,11.38
2023-03-23T05:00:02.940Z,11.35
2023-03-23T05:05:02.656Z,11.47
2023-03-23T05:10:02.400Z,11.43
2023-03-23T05:15:02.380Z,11.28
2023-03-23T05:20:03.316Z,11
2023-03-23T05:25:02.896Z,10.86
2023-03-23T05:30:02.776Z,11.03
2023-03-23T05:35:02.427Z,10.99
2023-03-23T05:40:03.087Z,11.3
2023-03-23T05:45:02.801Z,11.43
2023-03-23T05:50:02.580Z,11.37
2023-03-23T05:55:03.489Z,11.25
2023-03-23T06:00:03.016Z,11.22
2023-03-23T06:05:02.653Z,10.9
2023-03-23T06:10:02.855Z,10.98
2023-03-23T06:15:02.621Z,11.02
2023-03-23T06:20:02.455Z,11.05
2023-03-23T06:25:02.349Z,11.07
2023-03-23T06:30:03.136Z,10.82
2023-03-23T06:35:02.799Z,10.79
2023-03-23T06:40:02.616Z,10.63
2023-03-23T06:45:02.497Z,10.59
2023-03-23T06:55:03.791Z,10.35
2023-03-23T07:00:02.721Z,10.2
2023-03-23T07:05:02.413Z,10.28
2023-03-23T07:10:02.261Z,10.24
2023-03-23T07:15:02.964Z,10.23
2023-03-23T07:20:02.708Z,10.23
2023-03-23T07:25:02.430Z,10.19
2023-03-23T07:30:02.312Z,10.3
2023-03-23T07:35:03.004Z,10.51
2023-03-23T07:40:02.211Z,10.66
2023-03-23T07:45:02.210Z,10.68
2023-03-23T07:50:02.921Z,10.64
2023-03-23T07:55:03.685Z,10.61
2023-03-23T08:00:02.881Z,10.68
2023-03-23T08:05:02.279Z,10.82
2023-03-23T08:10:03.035Z,10.93
2023-03-23T08:15:02.755Z,11.02
2023-03-23T08:20:02.468Z,11.14
2023-03-23T08:25:02.423Z,11.15
2023-03-23T08:30:02.217Z,11.22
2023-03-23T08:35:02.943Z,11.19
2023-03-23T08:40:02.696Z,11.33
2023-03-23T08:45:02.763Z,11.68
2023-03-23T08:50:02.580Z,11.85
2023-03-23T08:55:03.402Z,11.8
2023-03-23T09:00:03.033Z,11.88
2023-03-23T09:05:02.736Z,12.07
2023-03-23T09:10:02.683Z,12.37
2023-03-23T09:15:02.635Z,12.61
2023-03-23T09:20:02.573Z,12.73
2023-03-23T09:25:02.348Z,12.67
2023-03-23T09:30:02.261Z,12.72
2023-03-23T09:35:02.941Z,12.55
2023-03-23T09:40:06.382Z,12.53
2023-03-23T09:45:02.865Z,12.66
2023-03-23T09:50:02.567Z,12.85
2023-03-23T09:55:02.768Z,12.96
2023-03-23T10:00:02.222Z,12.93
2023-03-23T10:05:02.839Z,12.91
2023-03-23T10:10:02.754Z,13.04
2023-03-23T10:15:02.533Z,13.15
2023-03-23T10:20:02.468Z,13.3
2023-03-23T10:25:02.502Z,13.21
2023-03-23T10:30:03.095Z,13.18
2023-03-23T10:35:02.796Z,13.11
2023-03-23T10:40:02.740Z,13.1
2023-03-23T10:45:02.454Z,13.16
2023-03-23T10:50:02.740Z,13.24
2023-03-23T10:55:02.984Z,13.28
2023-03-23T11:00:03.160Z,13.28
2023-03-23T11:05:09.225Z,13.45
2023-03-23T11:10:02.778Z,13.45
2023-03-23T11:15:02.540Z,13.49
2023-03-23T11:20:02.242Z,13.52
2023-03-23T11:25:02.992Z,13.71
2023-03-23T11:30:02.909Z,13.79
2023-03-23T11:35:13.984Z,13.76
2023-03-23T11:40:02.210Z,13.79
2023-03-23T11:45:03.040Z,13.65
2023-03-23T11:50:02.728Z,13.75
2023-03-23T11:55:03.299Z,13.81
2023-03-23T12:00:03.212Z,13.83
2023-03-23T12:05:02.484Z,14.08
2023-03-23T12:10:02.204Z,14.42
2023-03-23T12:15:02.360Z,14.42
2023-03-23T12:20:02.227Z,14.36
2023-03-23T12:25:03.148Z,14.32
2023-03-23T12:30:02.827Z,14.38
2023-03-23T12:35:02.572Z,14.35
2023-03-23T12:40:02.485Z,14.31
2023-03-23T12:45:02.375Z,14.18
2023-03-23T12:50:03.018Z,14.15
2023-03-23T12:55:03.723Z,14.29
2023-03-23T13:00:02.601Z,14.31
2023-03-23T13:05:02.432Z,14.55
2023-03-23T13:10:03.795Z,14.59
2023-03-23T13:15:02.818Z,14.54
2023-03-23T13:20:02.581Z,14.45
2023-03-23T13:25:02.324Z,14.4
2023-03-23T13:30:03.154Z,14.48
2023-03-23T13:35:02.782Z,14.55
2023-03-23T13:40:02.623Z,14.72
2023-03-23T13:45:02.426Z,14.65
2023-03-23T13:50:03.099Z,15.53
2023-03-23T13:55:03.899Z,15.33
2023-03-23T14:00:02.882Z,15.08
2023-03-23T14:05:02.859Z,14.74
2023-03-23T14:10:02.661Z,14.51
2023-03-23T14:15:02.971Z,14.21
2023-03-23T14:20:03.072Z,14.17
2023-03-23T14:25:03.061Z,14.3
2023-03-23T14:30:03.066Z,14.86
2023-03-23T14:35:02.850Z,15.31
2023-03-23T14:40:02.690Z,14.94
2023-03-23T14:45:02.610Z,14.92
2023-03-23T14:50:02.332Z,16.18
2023-03-23T14:55:02.733Z,16.22
2023-03-23T15:00:03.046Z,16.02
2023-03-23T15:05:02.789Z,14.71
2023-03-23T15:10:02.590Z,14.52
2023-03-23T15:15:02.383Z,14.46
2023-03-23T15:20:03.049Z,14.54
2023-03-23T15:25:02.811Z,14.47
2023-03-23T15:30:02.740Z,14.37
2023-03-23T15:35:03.604Z,14.52
2023-03-23T15:40:02.538Z,15.83
2023-03-23T15:45:02.321Z,15.03
2023-03-23T15:50:02.240Z,15.43
2023-03-23T16:05:02.495Z,14.06
2023-03-23T16:10:02.371Z,13.87
2023-03-23T16:15:03.191Z,13.82
2023-03-23T16:20:02.989Z,13.83
2023-03-23T16:25:02.720Z,13.85
2023-03-23T16:30:04.108Z,13.99
2023-03-23T16:35:03.148Z,13.82
2023-03-23T16:40:02.515Z,13.95
2023-03-23T16:45:03.071Z,13.9
2023-03-23T16:50:02.313Z,13.82
2023-03-23T16:55:03.306Z,13.86
2023-03-23T17:00:02.970Z,13.92
2023-03-23T17:05:02.648Z,13.75
2023-03-23T17:10:02.763Z,13.6
2023-03-23T17:15:03.016Z,13.39
2023-03-23T17:20:02.878Z,13.23
2023-03-23T17:25:02.821Z,13.38
2023-03-23T17:30:02.510Z,13.15
2023-03-23T17:35:02.268Z,13.08
2023-03-23T17:40:03.152Z,13.08
2023-03-23T17:45:02.939Z,13.1
2023-03-23T17:50:11.773Z,13.28
2023-03-23T17:55:03.285Z,13.15
2023-03-23T18:00:02.417Z,13.33
2023-03-23T18:05:02.486Z,13.12
2023-03-23T18:10:02.273Z,13.08
2023-03-23T18:15:03.115Z,12.88
2023-03-23T18:20:03.171Z,12.8
2023-03-23T18:25:02.944Z,12.7
2023-03-23T18:30:02.794Z,12.66
2023-03-23T18:35:02.729Z,12.6
2023-03-23T18:40:03.029Z,12.65
2023-03-23T18:45:02.584Z,12.6
2023-03-23T18:50:02.312Z,12.5
2023-03-23T18:55:03.219Z,12.5
2023-03-23T19:00:02.262Z,12.39
2023-03-23T19:05:02.938Z,12.22
2023-03-23T19:10:02.913Z,12.01
2023-03-23T19:15:02.856Z,11.54
2023-03-23T19:20:03.030Z,11.64
2023-03-23T19:25:02.720Z,11.93
2023-03-23T19:30:02.924Z,12.06
2023-03-23T19:35:03.708Z,11.79
2023-03-23T19:40:09.841Z,11.84
2023-03-23T19:45:03.501Z,11.72
2023-03-23T19:50:02.721Z,11.74
2023-03-23T19:55:03.021Z,11.81
2023-03-23T20:00:03.119Z,11.8
2023-03-23T20:05:02.894Z,11.87
2023-03-23T20:10:02.680Z,12.09
2023-03-23T20:15:02.534Z,12.14
2023-03-23T20:20:02.286Z,12.12
2023-03-23T20:25:03.022Z,12.06
2023-03-23T20:30:04.183Z,11.95
2023-03-23T20:35:02.656Z,11.91
2023-03-23T20:40:02.351Z,11.85
2023-03-23T20:45:03.099Z,11.99
2023-03-23T20:50:03.878Z,11.95
2023-03-23T20:55:03.659Z,11.9
2023-03-23T21:00:02.767Z,11.9
2023-03-23T21:05:02.408Z,11.98
2023-03-23T21:10:02.748Z,12.06
2023-03-23T21:15:02.691Z,11.91
2023-03-23T21:20:02.381Z,11.9
2023-03-23T21:25:02.288Z,11.95
2023-03-23T21:30:03.323Z,11.88
2023-03-23T21:35:02.829Z,11.86
2023-03-23T21:40:02.539Z,11.87
2023-03-23T21:45:02.284Z,11.54
2023-03-23T21:50:02.987Z,11.27
2023-03-23T21:55:03.647Z,11.38
2023-03-23T22:00:02.771Z,11.25
2023-03-23T22:05:02.557Z,11.26
2023-03-23T22:10:02.550Z,11.29
2023-03-23T22:15:02.380Z,11.18
2023-03-23T22:20:03.155Z,11.1
2023-03-23T22:25:02.971Z,10.88
2023-03-23T22:30:03.127Z,10.71
2023-03-23T22:35:02.553Z,10.65
2023-03-23T22:40:02.455Z,10.57
2023-03-23T22:45:02.277Z,10.56
2023-03-23T22:50:03.020Z,10.58
2023-03-23T22:55:03.691Z,10.63
2023-03-23T23:00:02.520Z,10.54
2023-03-23T23:05:02.283Z,10.56
2023-03-23T23:10:03.120Z,10.57
2023-03-23T23:15:03.210Z,10.44
2023-03-23T23:20:03.007Z,10.38
2023-03-23T23:25:02.779Z,10.27
2023-03-23T23:30:02.501Z,10.21
2023-03-23T23:35:03.199Z,10.2
2023-03-23T23:40:03.164Z,10.42
2023-03-23T23:45:02.228Z,10.43
2023-03-23T23:50:02.960Z,10.23
2023-03-23T23:55:03.597Z,10.34
